TimeEST,TemperatureF,Dew PointF,Humidity,Sea Level PressureIn,VisibilityMPH,Wind Direction,Wind SpeedMPH,Gust SpeedMPH,PrecipitationIn,Events,Conditions,WindDirDegrees,DateUTC
12:53 AM,64.0,60.1,87,30.04,10.0,SW,9.2,-,N/A,,Mostly Cloudy,220,2013-03-06 05:53:00
1:53 AM,64.9,60.1,84,30.02,10.0,SSW,10.4,-,N/A,,Mostly Cloudy,210,2013-03-06 06:53:00
2:53 AM,64.9,60.1,84,30.00,10.0,SSW,11.5,-,N/A,,Mostly Cloudy,210,2013-03-06 07:53:00
3:53 AM,66.0,62.1,87,29.99,10.0,SW,12.7,24.2,0.01,,Overcast,230,2013-03-06 08:53:00
4:53 AM,64.9,62.1,90,30.00,10.0,West,10.4,20.7,N/A,,Mostly Cloudy,270,2013-03-06 09:53:00
5:14 AM,60.8,55.4,82,30.02,10.0,NW,17.3,21.9,0.00,Rain,Light Rain,320,2013-03-06 10:14:00
5:53 AM,57.0,50.0,77,30.05,10.0,NNW,19.6,31.1,0.00,,Mostly Cloudy,340,2013-03-06 10:53:00
6:53 AM,53.1,39.9,61,30.08,10.0,NNW,18.4,27.6,N/A,,Scattered Clouds,330,2013-03-06 11:53:00
7:53 AM,52.0,34.0,50,30.12,10.0,NNW,25.3,34.5,N/A,,Scattered Clouds,340,2013-03-06 12:53:00
8:53 AM,54.0,37.0,53,30.14,10.0,North,19.6,28.8,N/A,,Partly Cloudy,350,2013-03-06 13:53:00
9:53 AM,59.0,37.9,46,30.15,10.0,NW,15.0,33.4,N/A,,Clear,310,2013-03-06 14:53:00
10:53 AM,60.1,37.0,42,30.16,10.0,NNW,15.0,24.2,N/A,,Clear,330,2013-03-06 15:53:00
11:53 AM,61.0,34.0,36,30.13,10.0,NW,12.7,24.2,N/A,,Clear,320,2013-03-06 16:53:00
12:53 PM,62.1,34.0,35,30.10,10.0,WNW,12.7,23.0,N/A,,Clear,300,2013-03-06 17:53:00
1:53 PM,62.1,35.1,37,30.09,10.0,WNW,15.0,26.5,N/A,,Clear,290,2013-03-06 18:53:00
2:53 PM,60.1,33.1,36,30.08,10.0,NW,17.3,28.8,N/A,,Clear,320,2013-03-06 19:53:00
3:53 PM,59.0,35.1,41,30.07,10.0,WNW,16.1,24.2,N/A,,Clear,300,2013-03-06 20:53:00
4:53 PM,57.9,36.0,44,30.07,10.0,West,18.4,24.2,N/A,,Clear,280,2013-03-06 21:53:00
5:53 PM,57.0,37.0,47,30.08,10.0,NW,17.3,23.0,N/A,,Clear,320,2013-03-06 22:53:00
6:53 PM,55.0,36.0,49,30.10,10.0,NW,10.4,19.6,N/A,,Clear,320,2013-03-06 23:53:00
7:53 PM,55.0,37.0,51,30.11,10.0,WNW,10.4,-,N/A,,Clear,300,2013-03-07 00:53:00
8:53 PM,54.0,37.9,55,30.12,10.0,NW,9.2,-,N/A,,Clear,320,2013-03-07 01:53:00
9:53 PM,53.1,39.0,59,30.15,10.0,NW,4.6,-,N/A,,Clear,320,2013-03-07 02:53:00
10:53 PM,51.1,37.9,61,30.16,10.0,North,5.8,-,N/A,,Clear,350,2013-03-07 03:53:00
11:53 PM,52.0,37.9,59,30.17,10.0,North,6.9,-,N/A,,Clear,360,2013-03-07 04:53:00